Time;durP1;ratioP1;P1;durP2;ratioP2;P2;SDS_P1;SDS_P2;PMS_P1;PMS_P2;Temp;Humidity;BMP_temperature;BMP_pressure;BME280_temperature;BME280_humidity;BME280_pressure;Samples;Min_cycle;Max_cycle;Signal;HPM_P1;HPM_P2
2022/10/08 00:07:32;;;;;;;8.77;5.40;;;;;;;16.72;64.53;101175.72;31358758;28;20063;-77
2022/10/08 00:22:34;;;;;;;7.03;4.80;;;;;;;16.72;63.59;101156.53;31357603;28;20103;-76
2022/10/08 00:37:36;;;;;;;10.43;6.00;;;;;;;16.62;63.77;101142.63;31368457;28;20060;-78
2022/10/08 00:52:57;;;;;;;14.00;5.60;;;;;;;16.52;64.48;101143.72;31380113;28;20076;-75
2022/10/08 01:08:15;;;;;;;13.67;6.17;;;;;;;16.56;64.09;101132.63;31359140;28;20419;-76
2022/10/08 01:23:28;;;;;;;17.50;7.77;;;;;;;16.49;63.69;101133.63;31335202;28;20065;-75
2022/10/08 01:38:34;;;;;;;21.37;6.90;;;;;;;16.38;63.84;101133.91;31341330;28;20045;-77
2022/10/08 01:53:40;;;;;;;12.83;6.10;;;;;;;16.29;64.10;101130.25;31353024;28;20041;-77
2022/10/08 02:08:42;;;;;;;14.37;6.93;;;;;;;16.33;63.88;101119.94;31351703;28;20131;-78
2022/10/08 02:24:10;;;;;;;12.80;6.17;;;;;;;16.31;64.13;101120.38;31354467;28;20041;-77
2022/10/08 02:39:15;;;;;;;12.53;6.67;;;;;;;16.12;64.69;101121.28;31365942;28;20053;-76
2022/10/08 02:54:20;;;;;;;17.27;9.10;;;;;;;16.05;65.74;101115.25;31376580;28;20060;-76
2022/10/08 03:09:24;;;;;;;32.30;10.93;;;;;;;16.07;64.56;101107.34;31345709;28;20052;-77
2022/10/08 03:24:26;;;;;;;15.67;7.57;;;;;;;15.98;64.92;101108.75;31375077;28;20067;-77
2022/10/08 03:39:28;;;;;;;15.33;6.67;;;;;;;15.89;65.13;101097.63;31352654;28;20487;-76
2022/10/08 03:54:30;;;;;;;14.40;6.67;;;;;;;15.91;65.22;101092.50;31350783;28;20049;-77
2022/10/08 04:09:32;;;;;;;8.50;5.53;;;;;;;15.98;64.35;101083.34;31335729;28;20111;-77
2022/10/08 04:24:33;;;;;;;22.33;9.80;;;;;;;16.00;65.01;101087.19;31330572;28;20466;-76
2022/10/08 04:39:37;;;;;;;18.40;8.97;;;;;;;16.31;63.89;101084.75;31336736;28;20061;-75
2022/10/08 04:54:39;;;;;;;20.33;8.93;;;;;;;16.93;62.14;101090.84;31342707;28;20064;-75
2022/10/08 05:09:41;;;;;;;18.60;7.83;;;;;;;17.25;62.22;101095.34;31352678;28;20054;-76
2022/10/08 05:24:43;;;;;;;16.20;7.50;;;;;;;17.82;60.31;101104.50;31344478;28;20044;-75
2022/10/08 05:39:47;;;;;;;12.30;5.97;;;;;;;18.50;58.53;101108.41;31372119;28;20049;-77
2022/10/08 05:54:48;;;;;;;11.88;5.78;;;;;;;19.88;54.14;101093.19;31362966;28;20494;-76
2022/10/08 06:09:51;;;;;;;10.00;5.70;;;;;;;22.20;47.82;101109.50;31357026;28;20099;-77
2022/10/08 06:24:53;;;;;;;12.82;5.25;;;;;;;22.46;47.99;101104.94;31336851;28;20048;-77
2022/10/08 06:39:55;;;;;;;7.65;4.20;;;;;;;23.05;44.23;101126.31;31357187;28;20049;-79
2022/10/08 06:54:57;;;;;;;14.88;6.57;;;;;;;24.42;43.34;101113.97;31361926;28;20049;-82
2022/10/08 07:09:59;;;;;;;17.23;10.35;;;;;;;25.04;41.51;101103.38;31361167;28;20060;-80
2022/10/08 07:25:06;;;;;;;5.35;3.90;;;;;;;26.06;39.08;101100.63;31354808;28;20049;-79
2022/10/08 07:40:09;;;;;;;5.78;3.78;;;;;;;26.35;38.71;101082.75;31338953;28;20053;-79
2022/10/08 07:55:11;;;;;;;6.47;4.07;;;;;;;27.05;37.59;101065.00;31345812;28;20417;-76
2022/10/08 08:10:13;;;;;;;7.23;4.00;;;;;;;28.25;34.62;101076.69;31360795;28;20053;-74
2022/10/08 08:25:16;;;;;;;5.68;2.88;;;;;;;28.03;35.43;101050.41;31338353;28;20052;-78
2022/10/08 08:40:18;;;;;;;4.30;2.60;;;;;;;27.13;35.91;101033.34;31355295;28;20086;-79
2022/10/08 08:55:36;;;;;;;7.00;4.20;;;;;;;27.99;34.50;101022.03;31384681;28;20053;-78
2022/10/08 09:11:00;;;;;;;5.53;3.42;;;;;;;28.73;33.49;101004.16;31378616;28;20141;-80
2022/10/08 09:26:18;;;;;;;4.40;3.13;;;;;;;28.92;33.09;100987.47;31381738;28;20601;-79
2022/10/08 09:41:20;;;;;;;5.50;2.80;;;;;;;29.67;33.74;100970.00;31359065;28;20699;-78
2022/10/08 09:56:26;;;;;;;5.05;3.08;;;;;;;29.08;33.73;100943.84;31365348;28;20105;-77
2022/10/08 10:11:35;;;;;;;8.88;4.32;;;;;;;29.22;33.10;100934.25;31366946;28;20053;-78
2022/10/08 10:26:40;;;;;;;15.77;8.73;;;;;;;29.48;33.23;100914.09;31341887;28;20490;-78
2022/10/08 10:41:53;;;;;;;7.22;3.28;;;;;;;29.04;31.43;100887.50;31352775;28;20053;-76
2022/10/08 10:57:12;;;;;;;3.88;3.20;;;;;;;29.45;31.86;100865.56;31335892;28;20076;-81
2022/10/08 11:12:46;;;;;;;5.72;3.17;;;;;;;29.72;31.03;100848.88;31345276;28;20548;-77
2022/10/08 11:28:06;;;;;;;5.72;3.35;;;;;;;30.84;29.81;100831.47;31339170;28;20107;-77
2022/10/08 11:43:15;;;;;;;6.03;2.80;;;;;;;31.15;29.10;100815.03;31352893;28;20057;-76
2022/10/08 11:58:27;;;;;;;4.07;2.90;;;;;;;30.62;29.61;100792.72;31349082;28;20052;-75
2022/10/08 12:13:30;;;;;;;9.27;5.20;;;;;;;27.07;35.19;100761.53;31347985;28;20107;-76
2022/10/08 12:28:34;;;;;;;;;;;;;;;25.64;37.48;100753.97;31351052;28;20049;-79
2022/10/08 12:43:46;;;;;;;5.35;3.53;;;;;;;25.17;38.15;100725.91;31367455;28;19925;-77
2022/10/08 12:58:49;;;;;;;3.97;2.73;;;;;;;24.71;39.05;100718.00;31362347;28;20391;-76
2022/10/08 13:13:51;;;;;;;4.13;3.50;;;;;;;24.20;40.42;100688.56;31359313;28;20052;-78
2022/10/08 13:29:22;;;;;;;6.95;4.07;;;;;;;24.00;40.54;100670.84;31360257;28;20552;-76
2022/10/08 13:44:26;;;;;;;6.63;3.90;;;;;;;23.85;40.87;100661.19;31330433;28;20057;-77
2022/10/08 13:59:28;;;;;;;6.57;3.03;;;;;;;23.52;41.22;100648.66;31342506;28;20052;-77
2022/10/08 14:14:31;;;;;;;9.60;3.77;;;;;;;23.43;41.29;100655.13;31352460;28;20044;-77
2022/10/08 14:29:34;;;;;;;8.25;3.50;;;;;;;23.14;41.93;100652.66;31349105;28;20048;-77
2022/10/08 14:44:36;;;;;;;7.65;3.95;;;;;;;23.03;42.04;100647.03;31343339;28;20491;-77
2022/10/08 14:59:38;;;;;;;5.60;3.88;;;;;;;22.85;42.71;100658.44;31357168;28;20057;-76
2022/10/08 15:14:40;;;;;;;8.83;3.80;;;;;;;22.54;42.90;100659.13;31346674;28;20060;-77
2022/10/08 15:29:42;;;;;;;10.40;4.57;;;;;;;22.22;43.90;100669.31;31329428;28;20099;-76
2022/10/08 15:44:45;;;;;;;9.07;4.75;;;;;;;22.05;44.39;100672.66;31345901;28;20053;-76
2022/10/08 15:59:47;;;;;;;9.60;4.25;;;;;;;21.80;44.84;100698.16;31339657;28;20053;-76
2022/10/08 16:14:49;;;;;;;19.85;5.95;;;;;;;21.61;45.65;100710.72;31323582;28;20049;-76
2022/10/08 16:29:51;;;;;;;11.65;6.15;;;;;;;21.33;46.19;100715.78;31333176;28;20092;-76
2022/10/08 16:44:53;;;;;;;13.80;6.00;;;;;;;21.07;46.82;100721.09;31327050;28;20049;-75
2022/10/08 16:59:56;;;;;;;13.40;6.22;;;;;;;20.74;48.01;100716.53;31343722;28;20465;-75
2022/10/08 17:14:58;;;;;;;17.40;6.85;;;;;;;20.62;48.57;100698.22;31349797;28;20044;-76
2022/10/08 17:30:00;;;;;;;14.32;6.50;;;;;;;20.53;49.07;100694.81;31347254;28;20503;-76
2022/10/08 17:45:02;;;;;;;23.42;8.77;;;;;;;20.33;50.10;100681.59;31352437;28;20498;-76
2022/10/08 18:00:05;;;;;;;23.48;10.65;;;;;;;20.00;51.51;100668.66;31328411;28;20550;-76
2022/10/08 18:15:07;;;;;;;23.08;10.30;;;;;;;19.82;52.26;100674.31;31348870;28;20053;-76
2022/10/08 18:30:09;;;;;;;20.42;10.43;;;;;;;19.73;52.41;100669.59;31343387;28;20068;-75
2022/10/08 18:45:12;;;;;;;19.67;9.20;;;;;;;19.49;53.59;100665.25;31349025;28;20049;-75
2022/10/08 19:00:14;;;;;;;22.02;10.80;;;;;;;19.17;55.01;100658.47;31324690;28;20485;-75
2022/10/08 19:15:15;;;;;;;27.30;12.27;;;;;;;18.87;56.51;100657.50;31333284;28;20061;-74
2022/10/08 19:30:18;;;;;;;18.63;8.97;;;;;;;18.76;56.95;100644.22;31320197;28;20084;-76
2022/10/08 19:45:26;;;;;;;14.70;6.93;;;;;;;18.76;56.55;100651.72;31318924;28;20057;-74
2022/10/08 20:00:28;;;;;;;12.50;6.40;;;;;;;18.81;55.70;100653.84;31340724;28;20103;-75
2022/10/08 20:15:30;;;;;;;15.33;7.47;;;;;;;18.44;57.87;100653.09;31331221;28;20045;-76
2022/10/08 20:30:32;;;;;;;12.63;6.77;;;;;;;18.32;58.21;100643.78;31314546;28;20145;-73
2022/10/08 20:45:34;;;;;;;15.43;8.77;;;;;;;18.23;58.83;100635.53;31333995;28;20084;-75
2022/10/08 21:00:36;;;;;;;19.80;8.53;;;;;;;17.99;59.57;100619.66;31317505;28;20140;-74
2022/10/08 21:15:37;;;;;;;16.70;7.13;;;;;;;17.93;58.59;100610.50;31348351;28;20055;-75
2022/10/08 21:30:39;;;;;;;14.83;6.83;;;;;;;17.99;58.03;100602.41;31348816;28;20057;-73
2022/10/08 21:45:52;;;;;;;9.80;6.00;;;;;;;17.91;58.02;100580.00;31367691;28;20057;-74
2022/10/08 22:00:54;;;;;;;12.13;5.83;;;;;;;17.85;58.12;100568.06;31356360;28;20091;-72
2022/10/08 22:16:01;;;;;;;11.93;6.17;;;;;;;17.72;58.15;100539.97;31342132;28;20099;-73
2022/10/08 22:31:05;;;;;;;16.07;7.10;;;;;;;17.69;58.88;100532.69;31355037;28;20414;-74
2022/10/08 22:46:09;;;;;;;24.07;8.40;;;;;;;17.65;58.49;100534.81;31360158;28;20059;-74
2022/10/08 23:01:14;;;;;;;16.00;7.97;;;;;;;17.57;58.90;100517.06;31333273;28;20048;-73
2022/10/08 23:16:16;;;;;;;39.13;17.47;;;;;;;17.45;59.05;100526.22;31311165;28;20100;-74
2022/10/08 23:31:20;;;;;;;24.73;11.97;;;;;;;17.33;59.57;100514.91;31317443;28;20048;-74
2022/10/08 23:46:25;;;;;;;25.13;12.37;;;;;;;17.17;60.45;100493.22;31333238;28;20143;-75
